Time;durP1;ratioP1;P1;durP2;ratioP2;P2;SDS_P1;SDS_P2;PMS_P1;PMS_P2;Temp;Humidity;BMP_temperature;BMP_pressure;BME280_temperature;BME280_humidity;BME280_pressure;Samples;Min_cycle;Max_cycle;Signal;HPM_P1;HPM_P2
2022/04/12 00:01:59;;;;;;;3.17;2.87;;;10.60;99.90;;;;;;5114772;27;20220;-63
2022/04/12 00:04:28;;;;;;;2.83;2.63;;;10.50;99.90;;;;;;5108906;27;20257;-63
2022/04/12 00:06:56;;;;;;;3.20;2.90;;;10.40;99.90;;;;;;5100990;28;20593;-63
2022/04/12 00:09:25;;;;;;;2.73;2.63;;;10.40;99.90;;;;;;5112587;27;20193;-63
2022/04/12 00:11:54;;;;;;;2.70;2.50;;;10.30;99.90;;;;;;5105520;28;20260;-63
2022/04/12 00:14:22;;;;;;;2.90;2.77;;;10.30;99.90;;;;;;5103934;27;20305;-64
2022/04/12 00:19:02;;;;;;;3.00;2.80;;;10.20;99.90;;;;;;5097618;28;20190;-63
2022/04/12 00:19:38;;;;;;;2.43;2.33;;;10.10;99.90;;;;;;5113476;28;20334;-63
2022/04/12 00:22:06;;;;;;;2.90;2.70;;;10.10;99.90;;;;;;5102737;28;20195;-63
2022/04/12 00:24:36;;;;;;;6.00;2.63;;;10.10;99.90;;;;;;5108299;28;20290;-63
2022/04/12 00:27:04;;;;;;;2.77;2.67;;;10.10;99.90;;;;;;5105677;27;20186;-63
2022/04/12 00:29:33;;;;;;;2.60;2.50;;;10.00;99.90;;;;;;5116371;27;20197;-65
2022/04/12 00:32:02;;;;;;;4.80;3.13;;;10.00;99.90;;;;;;5100745;27;20194;-63
2022/04/12 00:34:30;;;;;;;3.03;2.83;;;10.00;99.90;;;;;;5101001;28;20197;-63
2022/04/12 00:36:58;;;;;;;3.93;3.60;;;9.90;99.90;;;;;;5115306;27;20197;-63
2022/04/12 00:39:27;;;;;;;5.93;4.13;;;9.90;99.90;;;;;;5113075;27;20729;-63
2022/04/12 00:41:57;;;;;;;6.60;4.90;;;9.90;99.90;;;;;;5112156;27;20200;-63
2022/04/12 00:44:25;;;;;;;8.20;4.77;;;9.80;99.90;;;;;;5116683;27;20194;-64
2022/04/12 00:46:53;;;;;;;5.80;5.30;;;9.70;99.90;;;;;;5105400;27;20198;-64
2022/04/12 00:49:23;;;;;;;9.10;5.47;;;9.70;99.90;;;;;;5120287;27;20198;-63
2022/04/12 00:51:52;;;;;;;6.60;5.27;;;9.70;99.90;;;;;;5105864;27;20199;-63
2022/04/12 00:54:23;;;;;;;6.93;4.60;;;9.70;99.90;;;;;;5102338;27;20627;-64
2022/04/12 00:56:53;;;;;;;5.23;4.77;;;9.70;99.90;;;;;;5109095;27;20272;-63
2022/04/12 00:59:23;;;;;;;5.63;4.63;;;9.70;99.90;;;;;;5116986;27;20267;-63
2022/04/12 01:01:51;;;;;;;4.73;4.40;;;9.70;99.90;;;;;;5103843;27;20563;-63
2022/04/12 01:04:20;;;;;;;9.60;5.20;;;9.70;99.90;;;;;;5104790;27;20627;-63
2022/04/12 01:06:49;;;;;;;9.20;5.77;;;9.70;99.90;;;;;;5108210;27;20533;-63
2022/04/12 01:09:18;;;;;;;5.70;4.93;;;9.60;99.90;;;;;;5116614;27;20194;-63
2022/04/12 01:11:48;;;;;;;5.93;5.00;;;9.50;99.90;;;;;;5109998;27;20193;-63
2022/04/12 01:14:17;;;;;;;6.50;5.30;;;9.40;99.90;;;;;;5098646;27;20222;-63
2022/04/12 01:16:47;;;;;;;5.90;5.30;;;9.40;99.90;;;;;;5115607;27;20188;-64
2022/04/12 01:19:15;;;;;;;7.30;4.90;;;9.30;99.90;;;;;;5132147;27;20206;-63
2022/04/12 01:21:51;;;;;;;6.53;5.13;;;9.20;99.90;;;;;;5115851;27;20199;-64
2022/04/12 01:24:21;;;;;;;6.63;5.10;;;9.20;99.90;;;;;;5105929;27;20203;-63
2022/04/12 01:26:50;;;;;;;5.63;5.13;;;9.10;99.90;;;;;;5108200;27;20201;-63
2022/04/12 01:29:18;;;;;;;6.10;5.50;;;9.10;99.90;;;;;;5109428;27;20201;-64
2022/04/12 01:31:48;;;;;;;8.10;5.37;;;9.00;99.90;;;;;;5104360;27;20201;-63
2022/04/12 01:34:17;;;;;;;8.53;6.00;;;8.90;99.90;;;;;;5109664;27;20230;-63
2022/04/12 01:36:45;;;;;;;6.80;6.07;;;8.80;99.90;;;;;;5116768;27;20285;-63
2022/04/12 01:39:13;;;;;;;5.77;5.27;;;8.70;99.90;;;;;;5104495;27;20298;-63
2022/04/12 01:41:43;;;;;;;5.97;5.37;;;8.60;99.90;;;;;;5111442;27;20291;-63
2022/04/12 01:44:11;;;;;;;7.27;5.40;;;8.50;99.90;;;;;;5104967;27;20207;-64
2022/04/12 01:46:39;;;;;;;7.87;5.67;;;8.50;99.90;;;;;;5105448;27;20195;-63
2022/04/12 01:49:08;;;;;;;6.63;5.13;;;8.50;99.90;;;;;;5100665;27;20190;-63
2022/04/12 01:51:36;;;;;;;6.50;5.37;;;8.50;99.90;;;;;;5101737;27;20645;-63
2022/04/12 01:54:04;;;;;;;6.13;5.20;;;8.50;99.90;;;;;;5089107;28;20191;-63
2022/04/12 01:56:33;;;;;;;6.47;5.10;;;8.40;99.90;;;;;;5112643;27;20196;-63
2022/04/12 01:59:04;;;;;;;6.10;5.30;;;8.40;99.90;;;;;;5102149;27;20312;-63
2022/04/12 02:01:32;;;;;;;7.60;5.60;;;8.40;99.90;;;;;;5107059;27;20191;-63
2022/04/12 02:04:01;;;;;;;7.37;5.70;;;8.40;99.90;;;;;;5095117;27;20706;-63
2022/04/12 02:06:29;;;;;;;5.53;5.03;;;8.40;99.90;;;;;;5108554;27;20297;-64
2022/04/12 02:08:57;;;;;;;5.67;5.20;;;8.30;99.90;;;;;;5100420;27;20641;-63
2022/04/12 02:11:25;;;;;;;6.07;4.90;;;8.30;99.90;;;;;;5112225;27;20194;-64
2022/04/12 02:13:54;;;;;;;5.20;4.77;;;8.30;99.90;;;;;;5113487;27;20603;-63
2022/04/12 02:16:24;;;;;;;9.00;5.20;;;8.30;99.90;;;;;;5113965;27;20668;-63
2022/04/12 02:18:52;;;;;;;5.37;4.93;;;8.30;99.90;;;;;;5099646;27;20216;-63
2022/04/12 02:21:20;;;;;;;5.50;4.60;;;8.30;99.90;;;;;;5105133;27;20203;-64
2022/04/12 02:23:48;;;;;;;5.73;4.73;;;8.30;99.90;;;;;;5115894;27;20194;-63
2022/04/12 02:26:17;;;;;;;5.77;4.40;;;8.30;99.90;;;;;;5108564;27;20233;-64
2022/04/12 02:28:45;;;;;;;5.03;4.20;;;8.40;99.90;;;;;;5107430;27;20202;-63
2022/04/12 02:31:13;;;;;;;4.77;4.37;;;8.40;99.90;;;;;;5139902;27;20195;-63
2022/04/12 02:33:44;;;;;;;5.63;4.60;;;8.40;99.90;;;;;;5096586;27;20191;-63
2022/04/12 02:36:12;;;;;;;4.87;4.40;;;8.30;99.90;;;;;;5108829;27;20193;-63
2022/04/12 02:38:43;;;;;;;5.17;4.60;;;8.30;99.90;;;;;;5107121;27;20248;-63
2022/04/12 02:41:11;;;;;;;8.27;4.80;;;8.30;99.90;;;;;;5110779;27;20191;-63
2022/04/12 02:43:40;;;;;;;5.23;4.53;;;8.30;99.90;;;;;;5110955;27;20210;-63
2022/04/12 02:46:09;;;;;;;5.23;4.30;;;8.20;99.90;;;;;;5096757;27;20215;-64
2022/04/12 02:48:38;;;;;;;6.70;4.73;;;8.20;99.90;;;;;;5099387;28;20202;-63
2022/04/12 02:51:07;;;;;;;6.17;4.60;;;8.30;99.90;;;;;;5097595;27;20197;-64
2022/04/12 02:53:36;;;;;;;7.60;5.00;;;8.40;99.90;;;;;;5101363;28;20201;-64
2022/04/12 02:56:05;;;;;;;9.33;5.70;;;8.40;99.90;;;;;;5102642;27;20195;-63
2022/04/12 02:58:33;;;;;;;8.13;5.37;;;8.30;99.90;;;;;;5098872;27;20191;-64
2022/04/12 03:01:02;;;;;;;7.40;5.33;;;8.30;99.90;;;;;;5100871;28;20229;-63
2022/04/12 03:03:30;;;;;;;9.17;5.90;;;8.30;99.90;;;;;;5104732;28;20198;-63
2022/04/12 03:05:58;;;;;;;9.60;5.27;;;8.30;99.90;;;;;;5126470;27;20184;-63
2022/04/12 03:08:28;;;;;;;6.57;5.30;;;8.20;99.90;;;;;;5098714;27;20203;-63
2022/04/12 03:10:56;;;;;;;8.13;5.10;;;8.20;99.90;;;;;;5095184;28;20265;-63
2022/04/12 03:13:24;;;;;;;5.57;5.07;;;8.10;99.90;;;;;;5102824;27;20279;-63
2022/04/12 03:15:56;;;;;;;5.83;5.27;;;8.10;99.90;;;;;;5053333;28;20262;-63
2022/04/12 03:18:24;;;;;;;6.37;4.90;;;7.90;99.90;;;;;;5061888;28;20200;-63
2022/04/12 03:20:52;;;;;;;10.10;5.17;;;7.90;99.90;;;;;;5057738;28;20706;-63
2022/04/12 03:23:21;;;;;;;7.43;5.00;;;7.80;99.90;;;;;;5067096;28;21675;-63
2022/04/12 03:25:51;;;;;;;7.20;5.00;;;7.80;99.90;;;;;;5054727;28;20266;-63
2022/04/12 03:28:19;;;;;;;5.63;4.80;;;7.70;99.90;;;;;;5049490;28;20203;-63
2022/04/12 03:30:47;;;;;;;4.97;4.60;;;7.70;99.90;;;;;;5061040;28;20280;-64
2022/04/12 03:33:16;;;;;;;4.90;4.57;;;7.70;99.90;;;;;;5061145;28;20203;-63
2022/04/12 03:35:44;;;;;;;7.33;5.13;;;7.60;99.90;;;;;;5059484;28;20541;-63
2022/04/12 03:38:14;;;;;;;5.67;4.97;;;7.60;99.90;;;;;;5049290;28;20511;-63
2022/04/12 03:40:42;;;;;;;7.43;5.10;;;7.50;99.90;;;;;;5058861;28;20211;-63
2022/04/12 03:43:12;;;;;;;5.40;4.90;;;7.50;99.90;;;;;;5051204;28;20246;-63
2022/04/12 03:45:40;;;;;;;7.43;5.47;;;7.40;99.90;;;;;;5059625;28;20306;-63
2022/04/12 03:48:09;;;;;;;6.20;4.80;;;7.40;99.90;;;;;;5057969;28;20196;-63
2022/04/12 03:50:37;;;;;;;6.43;5.43;;;7.30;99.90;;;;;;5055561;28;20189;-63
2022/04/12 03:53:06;;;;;;;4.97;4.57;;;7.30;99.90;;;;;;5058363;28;20196;-63
2022/04/12 03:55:38;;;;;;;6.07;5.30;;;7.30;99.90;;;;;;5053111;28;20632;-64
2022/04/12 03:58:08;;;;;;;5.23;4.70;;;7.30;99.90;;;;;;5063085;28;20200;-63
2022/04/12 04:00:38;;;;;;;5.67;5.13;;;7.20;99.90;;;;;;5059591;28;20230;-63
2022/04/12 04:03:10;;;;;;;8.87;5.30;;;7.20;99.90;;;;;;5054402;28;20243;-63
2022/04/12 04:05:39;;;;;;;5.10;4.67;;;7.20;99.90;;;;;;5056178;28;20284;-64
2022/04/12 04:08:07;;;;;;;5.77;5.00;;;7.10;99.90;;;;;;5057118;28;20193;-63
2022/04/12 04:10:39;;;;;;;5.33;4.70;;;7.10;99.90;;;;;;5056805;28;20184;-63
2022/04/12 04:13:08;;;;;;;6.10;5.10;;;7.00;99.90;;;;;;5053590;28;20208;-64
2022/04/12 04:15:40;;;;;;;5.70;5.20;;;7.00;99.90;;;;;;5094397;28;20705;-63
2022/04/12 04:18:09;;;;;;;5.90;5.30;;;6.90;99.90;;;;;;5098246;28;20190;-63
2022/04/12 04:20:37;;;;;;;5.57;5.07;;;6.90;99.90;;;;;;5098499;27;20206;-63
2022/04/12 04:23:06;;;;;;;5.80;5.27;;;6.90;99.90;;;;;;5099829;28;20557;-63
2022/04/12 04:25:35;;;;;;;8.43;5.50;;;6.90;99.90;;;;;;5100015;28;20273;-64
2022/04/12 04:28:05;;;;;;;7.13;5.50;;;6.90;99.90;;;;;;5093771;28;20729;-63
2022/04/12 04:30:35;;;;;;;9.40;5.57;;;6.90;99.90;;;;;;5126922;27;20716;-64
2022/04/12 04:33:07;;;;;;;8.27;5.70;;;6.90;99.90;;;;;;5097334;28;20463;-63
2022/04/12 04:35:35;;;;;;;12.07;5.43;;;6.90;99.90;;;;;;5101001;28;20295;-63
2022/04/12 04:38:03;;;;;;;5.70;5.17;;;6.90;99.90;;;;;;5096587;28;20191;-63
2022/04/12 04:40:32;;;;;;;8.77;5.60;;;6.80;99.90;;;;;;5100691;28;20195;-63
2022/04/12 04:43:02;;;;;;;6.83;5.50;;;6.90;99.90;;;;;;5098339;27;20203;-63
2022/04/12 04:45:30;;;;;;;8.83;5.20;;;6.80;99.90;;;;;;5102153;28;20696;-63
2022/04/12 04:48:00;;;;;;;6.17;5.07;;;6.80;99.90;;;;;;5094739;28;20190;-63
2022/04/12 04:50:31;;;;;;;8.83;5.07;;;6.80;99.90;;;;;;5105157;28;20436;-63
2022/04/12 04:53:02;;;;;;;5.43;4.93;;;6.80;99.90;;;;;;5093213;28;20202;-63
2022/04/12 04:55:30;;;;;;;7.80;5.33;;;6.80;99.90;;;;;;5097702;28;20667;-63
2022/04/12 04:57:59;;;;;;;9.60;5.60;;;6.80;99.90;;;;;;5129153;27;20249;-63
2022/04/12 05:00:29;;;;;;;7.30;5.40;;;6.70;99.90;;;;;;5096601;28;20614;-63
2022/04/12 05:02:59;;;;;;;6.17;5.20;;;6.70;99.90;;;;;;5094540;28;20207;-63
2022/04/12 05:05:28;;;;;;;7.20;4.47;;;6.70;99.90;;;;;;5100982;28;20203;-63
2022/04/12 05:07:59;;;;;;;5.83;5.13;;;6.70;99.90;;;;;;5091133;28;20189;-63
2022/04/12 05:10:29;;;;;;;5.87;4.50;;;6.80;99.90;;;;;;5099522;28;20214;-64
2022/04/12 05:12:59;;;;;;;5.97;4.90;;;6.80;99.90;;;;;;5099935;27;20198;-64
2022/04/12 05:15:28;;;;;;;4.80;4.40;;;6.90;99.90;;;;;;5101938;28;20291;-64
2022/04/12 05:18:03;;;;;;;9.40;4.90;;;7.00;99.90;;;;;;5098277;27;20206;-64
2022/04/12 05:20:32;;;;;;;6.03;4.80;;;7.00;99.90;;;;;;5096803;27;20610;-64
2022/04/12 05:23:01;;;;;;;5.83;4.40;;;7.00;99.90;;;;;;5101870;27;20229;-64
2022/04/12 05:25:30;;;;;;;6.40;4.33;;;7.20;99.90;;;;;;5108028;28;20203;-64
2022/04/12 05:27:58;;;;;;;7.10;4.30;;;7.30;99.90;;;;;;5095594;28;20206;-64
2022/04/12 05:30:27;;;;;;;5.23;4.40;;;7.40;99.90;;;;;;5102731;27;20312;-64
2022/04/12 05:32:56;;;;;;;8.63;4.50;;;7.40;99.90;;;;;;5104586;28;20548;-64
2022/04/12 05:35:24;;;;;;;10.70;4.20;;;7.50;99.90;;;;;;5103758;27;20194;-64
2022/04/12 05:37:54;;;;;;;9.97;3.80;;;7.60;99.90;;;;;;5099967;28;20191;-64
2022/04/12 05:40:24;;;;;;;5.93;3.83;;;7.90;99.90;;;;;;5100666;27;20206;-64
2022/04/12 05:42:52;;;;;;;6.23;3.50;;;8.10;99.90;;;;;;5130826;27;20960;-64
2022/04/12 05:45:21;;;;;;;4.87;4.40;;;8.50;99.90;;;;;;5126214;27;20243;-64
2022/04/12 05:47:51;;;;;;;6.17;5.23;;;8.90;99.90;;;;;;5095708;27;20194;-64
2022/04/12 05:50:23;;;;;;;9.50;4.63;;;9.30;99.90;;;;;;5108167;27;20843;-64
2022/04/12 05:52:51;;;;;;;5.77;3.90;;;9.60;99.90;;;;;;5111688;27;20183;-64
2022/04/12 05:55:22;;;;;;;8.77;4.37;;;9.90;99.90;;;;;;5106206;28;20306;-64
2022/04/12 05:57:54;;;;;;;6.77;3.83;;;10.00;99.90;;;;;;5093409;28;21375;-64
2022/04/12 06:00:24;;;;;;;4.97;3.73;;;10.20;99.90;;;;;;5097960;27;20191;-64
2022/04/12 06:02:54;;;;;;;6.20;4.17;;;10.30;99.90;;;;;;5099580;27;20252;-64
2022/04/12 06:05:24;;;;;;;5.63;4.10;;;10.30;99.90;;;;;;5097970;27;20190;-64
2022/04/12 06:07:53;;;;;;;4.97;3.77;;;10.40;99.90;;;;;;5099597;27;20202;-64
2022/04/12 06:10:22;;;;;;;8.13;4.10;;;10.60;99.90;;;;;;5099973;28;20226;-64
2022/04/12 06:13:00;;;;;;;6.43;3.63;;;10.70;99.90;;;;;;5100946;27;20266;-64
2022/04/12 06:15:29;;;;;;;4.00;3.60;;;10.90;99.90;;;;;;5099132;28;20223;-64
2022/04/12 06:17:57;;;;;;;13.80;4.07;;;11.00;99.90;;;;;;5106310;27;20199;-64
2022/04/12 06:20:26;;;;;;;7.67;4.03;;;11.20;99.90;;;;;;5094716;27;20207;-65
2022/04/12 06:22:54;;;;;;;3.93;3.63;;;11.30;99.90;;;;;;5100705;27;20226;-64
2022/04/12 06:25:23;;;;;;;6.17;3.67;;;11.50;99.90;;;;;;5102064;27;20451;-64
2022/04/12 06:27:52;;;;;;;7.00;3.50;;;11.70;99.90;;;;;;5102475;27;20248;-64
2022/04/12 06:30:25;;;;;;;5.40;3.67;;;12.00;99.90;;;;;;5101036;27;20195;-64
2022/04/12 06:32:54;;;;;;;4.93;3.73;;;12.30;99.90;;;;;;5097522;27;20744;-64
2022/04/12 06:35:23;;;;;;;5.03;3.83;;;12.50;99.90;;;;;;5102963;28;20194;-64
2022/04/12 06:37:53;;;;;;;4.20;3.90;;;12.70;99.90;;;;;;5095134;27;20195;-64
2022/04/12 06:40:22;;;;;;;6.80;4.20;;;12.90;99.90;;;;;;5081012;28;20195;-64
2022/04/12 06:42:52;;;;;;;7.30;3.77;;;13.10;99.90;;;;;;5103253;28;20206;-65
2022/04/12 06:45:22;;;;;;;6.67;3.43;;;13.20;99.90;;;;;;5096111;28;20191;-65
2022/04/12 06:47:55;;;;;;;8.00;4.10;;;13.40;99.90;;;;;;5094425;28;20195;-65
2022/04/12 06:50:23;;;;;;;15.27;6.67;;;13.70;99.90;;;;;;5102254;28;20203;-65
2022/04/12 06:52:53;;;;;;;15.60;7.37;;;13.90;99.90;;;;;;5094340;28;20213;-65
2022/04/12 06:55:22;;;;;;;8.50;4.27;;;14.20;99.90;;;;;;5094572;27;20211;-66
2022/04/12 06:57:51;;;;;;;8.77;4.13;;;14.60;99.90;;;;;;5108950;27;20213;-66
2022/04/12 07:00:19;;;;;;;4.30;3.77;;;14.80;99.90;;;;;;5095457;28;20333;-66
2022/04/12 07:02:50;;;;;;;4.27;3.60;;;14.70;99.90;;;;;;5106185;27;20269;-66
2022/04/12 07:05:18;;;;;;;7.60;3.60;;;14.90;99.90;;;;;;5098536;27;20191;-65
2022/04/12 07:07:47;;;;;;;5.47;3.87;;;15.10;99.90;;;;;;5103063;27;20194;-66
2022/04/12 07:10:17;;;;;;;4.83;3.60;;;15.50;99.90;;;;;;5135635;27;20629;-66
2022/04/12 07:12:46;;;;;;;8.80;3.90;;;15.80;99.90;;;;;;5101430;27;20300;-66
2022/04/12 07:15:15;;;;;;;10.83;4.50;;;16.00;99.90;;;;;;5114989;27;20234;-66
2022/04/12 07:17:44;;;;;;;7.60;5.43;;;16.10;99.90;;;;;;5112144;27;20195;-66
2022/04/12 07:20:14;;;;;;;10.67;4.53;;;16.50;99.90;;;;;;5102872;27;20274;-66
2022/04/12 07:22:42;;;;;;;5.53;3.87;;;17.00;99.90;;;;;;5091792;28;20278;-66
2022/04/12 07:25:11;;;;;;;9.37;4.30;;;17.00;99.90;;;;;;5099506;28;20203;-66
2022/04/12 07:27:39;;;;;;;6.83;3.77;;;17.30;99.90;;;;;;5107067;28;20248;-66
2022/04/12 07:30:10;;;;;;;4.37;3.90;;;17.70;99.90;;;;;;5102682;27;20743;-66
2022/04/12 07:32:38;;;;;;;6.87;3.73;;;17.90;99.90;;;;;;5093640;28;20293;-66
2022/04/12 07:35:07;;;;;;;6.93;3.90;;;18.10;99.90;;;;;;5098318;28;20231;-66
2022/04/12 07:37:37;;;;;;;15.70;4.37;;;18.30;99.90;;;;;;5092583;28;20203;-66
2022/04/12 07:40:06;;;;;;;7.97;3.47;;;18.70;99.90;;;;;;5098815;28;20198;-66
2022/04/12 07:42:35;;;;;;;5.63;3.50;;;19.00;99.90;;;;;;5095600;27;20207;-66
2022/04/12 07:45:04;;;;;;;5.87;3.80;;;18.40;99.90;;;;;;5098711;28;20199;-66
2022/04/12 07:47:35;;;;;;;6.20;3.80;;;17.60;99.90;;;;;;5087823;28;20203;-66
2022/04/12 07:50:05;;;;;;;7.30;4.10;;;17.40;99.90;;;;;;5095071;28;20186;-69
2022/04/12 07:52:33;;;;;;;3.87;3.47;;;17.60;99.90;;;;;;5092987;28;20293;-69
2022/04/12 07:55:04;;;;;;;3.80;3.50;;;17.90;99.90;;;;;;5102575;27;20316;-69
2022/04/12 07:57:33;;;;;;;9.00;3.77;;;18.00;99.90;;;;;;5092596;28;20227;-69
2022/04/12 08:00:01;;;;;;;5.73;3.40;;;17.80;99.90;;;;;;5095351;28;20204;-69
2022/04/12 08:02:29;;;;;;;4.10;3.70;;;17.90;99.90;;;;;;5090670;28;20203;-69
2022/04/12 08:04:58;;;;;;;4.67;3.90;;;18.40;99.90;;;;;;5104723;28;20194;-69
2022/04/12 08:07:27;;;;;;;9.20;3.73;;;18.70;99.90;;;;;;5092779;28;20187;-69
2022/04/12 08:09:55;;;;;;;5.57;3.50;;;18.90;99.90;;;;;;5104617;28;20290;-69
2022/04/12 08:12:25;;;;;;;3.30;3.10;;;19.10;99.90;;;;;;5096840;28;20208;-70
2022/04/12 08:14:53;;;;;;;6.97;3.30;;;19.50;99.90;;;;;;5088668;28;20295;-69
2022/04/12 08:17:22;;;;;;;7.27;3.10;;;19.30;99.90;;;;;;5098169;28;20273;-69
2022/04/12 08:19:50;;;;;;;4.63;3.40;;;19.40;99.90;;;;;;5106322;28;20221;-69
2022/04/12 08:22:19;;;;;;;7.33;3.13;;;19.50;99.90;;;;;;5097655;28;20214;-69
2022/04/12 08:25:08;;;;;;;8.30;3.37;;;19.90;99.90;;;;;;5092154;28;20201;-69
2022/04/12 08:27:39;;;;;;;6.20;3.30;;;20.20;99.90;;;;;;5101032;28;20226;-69
2022/04/12 08:30:08;;;;;;;4.37;3.00;;;20.60;99.90;;;;;;5103781;28;20203;-69
2022/04/12 08:32:36;;;;;;;5.97;3.10;;;20.80;99.90;;;;;;5103935;28;20206;-70
2022/04/12 08:35:06;;;;;;;6.50;3.10;;;21.10;99.90;;;;;;5103437;28;20225;-69
2022/04/12 08:37:35;;;;;;;7.17;3.60;;;21.20;99.90;;;;;;5095340;28;20260;-69
2022/04/12 08:40:04;;;;;;;10.47;3.40;;;21.20;99.90;;;;;;5099149;28;20260;-69
2022/04/12 08:42:33;;;;;;;5.40;3.53;;;21.40;99.90;;;;;;5123896;27;20184;-69
2022/04/12 08:45:06;;;;;;;3.30;2.97;;;21.60;99.90;;;;;;5098987;28;20278;-70
2022/04/12 08:47:35;;;;;;;7.13;4.67;;;21.80;99.90;;;;;;5100950;28;20188;-70
2022/04/12 08:50:06;;;;;;;8.83;4.23;;;21.70;99.90;;;;;;5099729;27;20237;-69
2022/04/12 08:52:37;;;;;;;5.63;3.20;;;21.30;99.90;;;;;;5104527;27;20211;-69
2022/04/12 08:55:07;;;;;;;14.63;3.27;;;21.70;99.90;;;;;;5114631;27;20200;-69
2022/04/12 08:57:36;;;;;;;4.70;3.20;;;21.70;99.90;;;;;;5102989;28;20479;-69
2022/04/12 09:00:07;;;;;;;7.43;4.10;;;22.10;99.90;;;;;;5095072;27;20187;-69
2022/04/12 09:02:36;;;;;;;6.87;3.30;;;22.30;99.90;;;;;;5095652;28;20231;-69
2022/04/12 09:05:06;;;;;;;5.47;3.20;;;21.80;99.90;;;;;;5102700;28;20199;-69
2022/04/12 09:07:46;;;;;;;4.73;3.23;;;21.20;99.90;;;;;;5100863;28;20602;-69
2022/04/12 09:10:14;;;;;;;8.93;3.87;;;20.40;99.90;;;;;;5106504;27;20203;-69
2022/04/12 09:12:42;;;;;;;5.73;3.23;;;20.10;99.90;;;;;;5101383;27;20210;-69
2022/04/12 09:15:15;;;;;;;5.47;3.00;;;20.20;99.90;;;;;;5100990;28;20729;-69
2022/04/12 09:17:44;;;;;;;8.60;3.40;;;20.30;99.90;;;;;;5104942;28;20672;-68
2022/04/12 09:20:14;;;;;;;8.17;3.77;;;20.30;99.90;;;;;;5097550;27;20282;-68
2022/04/12 09:22:44;;;;;;;6.73;3.57;;;20.40;99.90;;;;;;5100499;28;20526;-68
2022/04/12 09:25:15;;;;;;;5.57;3.20;;;20.80;99.90;;;;;;5099889;27;20646;-69
2022/04/12 09:27:48;;;;;;;10.03;3.40;;;21.30;99.90;;;;;;5102951;27;20187;-68
2022/04/12 09:30:20;;;;;;;9.80;3.40;;;21.50;99.90;;;;;;5098925;28;20688;-69
2022/04/12 09:32:49;;;;;;;6.43;3.50;;;21.80;99.90;;;;;;5106089;27;20742;-69
2022/04/12 09:35:18;;;;;;;6.20;3.10;;;22.10;99.90;;;;;;5103105;28;20228;-69
2022/04/12 09:37:47;;;;;;;4.33;3.30;;;22.40;99.90;;;;;;5109961;27;20710;-69
2022/04/12 09:40:17;;;;;;;11.43;3.30;;;22.60;99.90;;;;;;5097235;27;20761;-69
2022/04/12 09:42:49;;;;;;;5.90;2.87;;;22.50;99.90;;;;;;5106364;28;20645;-69
2022/04/12 09:45:19;;;;;;;6.40;3.23;;;23.00;99.90;;;;;;5097079;28;20478;-69
2022/04/12 09:47:50;;;;;;;9.73;2.80;;;23.40;99.90;;;;;;5103640;27;20200;-69
2022/04/12 09:50:38;;;;;;;3.87;2.57;;;23.70;99.90;;;;;;5098656;28;20200;-69
2022/04/12 09:53:11;;;;;;;3.80;2.53;;;23.80;99.90;;;;;;5093824;27;20211;-68
2022/04/12 09:55:41;;;;;;;5.93;2.50;;;23.80;99.90;;;;;;5102966;27;20259;-69
2022/04/12 09:58:13;;;;;;;6.90;2.67;;;24.50;99.90;;;;;;5098393;27;20678;-69
2022/04/12 10:00:45;;;;;;;3.40;2.53;;;24.70;99.90;;;;;;5099780;27;20213;-69
2022/04/12 10:03:14;;;;;;;4.20;2.23;;;24.60;99.90;;;;;;5095782;28;20194;-69
2022/04/12 10:05:44;;;;;;;3.57;2.50;;;24.80;99.90;;;;;;5096418;28;20195;-68
2022/04/12 10:08:13;;;;;;;6.70;2.87;;;25.20;99.90;;;;;;5097495;27;20331;-67
2022/04/12 10:10:43;;;;;;;5.37;2.27;;;24.70;99.90;;;;;;5099104;27;20599;-68
2022/04/12 10:13:12;;;;;;;4.40;2.43;;;24.40;99.90;;;;;;5095097;27;20264;-68
2022/04/12 10:15:43;;;;;;;3.87;2.40;;;24.10;99.90;;;;;;5104380;27;20744;-68
2022/04/12 10:18:15;;;;;;;3.03;2.13;;;24.30;99.90;;;;;;5125973;27;20249;-68
2022/04/12 10:20:44;;;;;;;3.53;2.20;;;24.50;99.90;;;;;;5095710;27;20198;-68
2022/04/12 10:23:18;;;;;;;4.33;2.43;;;24.80;99.90;;;;;;5096655;27;20662;-69
2022/04/12 10:25:50;;;;;;;4.50;2.30;;;25.10;99.90;;;;;;5096732;27;20277;-68
2022/04/12 10:28:19;;;;;;;3.13;2.33;;;25.10;99.90;;;;;;5101326;27;20278;-69
2022/04/12 10:30:49;;;;;;;4.33;2.47;;;25.00;99.90;;;;;;5112392;27;20192;-69
2022/04/12 10:33:24;;;;;;;3.67;2.50;;;24.80;99.90;;;;;;5095101;27;20566;-68
2022/04/12 10:36:02;;;;;;;6.33;2.40;;;24.40;99.90;;;;;;5095949;28;20769;-68
2022/04/12 10:38:40;;;;;;;2.60;1.90;;;24.00;99.90;;;;;;5103954;27;20237;-68
2022/04/12 10:41:25;;;;;;;6.50;2.57;;;24.10;99.90;;;;;;5094267;27;20285;-67
2022/04/12 10:43:57;;;;;;;3.73;2.20;;;24.00;99.90;;;;;;5100548;28;20689;-68
2022/04/12 10:46:46;;;;;;;2.33;2.13;;;23.70;99.90;;;;;;5100745;27;20205;-68
2022/04/12 10:49:17;;;;;;;3.37;1.90;;;24.00;99.90;;;;;;5101455;27;20608;-68
2022/04/12 10:51:46;;;;;;;3.33;2.30;;;24.50;99.90;;;;;;5099379;27;20194;-68
2022/04/12 10:54:29;;;;;;;3.83;2.30;;;24.60;99.90;;;;;;5107785;27;20192;-68
2022/04/12 10:57:24;;;;;;;3.73;2.50;;;24.80;99.90;;;;;;5098769;28;20202;-68
2022/04/12 10:59:55;;;;;;;4.60;2.60;;;24.60;99.90;;;;;;5097601;27;20981;-68
2022/04/12 11:02:29;;;;;;;5.47;2.17;;;24.20;99.50;;;;;;5095226;28;20202;-67
2022/04/12 11:04:58;;;;;;;3.17;1.97;;;23.80;99.90;;;;;;5135891;27;20230;-69
2022/04/12 11:07:35;;;;;;;3.43;2.50;;;22.90;99.90;;;;;;5102278;27;20278;-67
2022/04/12 11:10:30;;;;;;;5.63;2.63;;;22.30;99.90;;;;;;5097117;28;20195;-67
2022/04/12 11:13:07;;;;;;;4.67;2.53;;;21.90;99.90;;;;;;5098572;28;20210;-67
2022/04/12 11:15:37;;;;;;;2.60;2.40;;;22.80;99.90;;;;;;5100523;28;20238;-68
2022/04/12 11:18:14;;;;;;;5.57;2.60;;;23.00;99.90;;;;;;5105987;27;20200;-67
2022/04/12 11:20:45;;;;;;;4.70;2.20;;;23.70;99.90;;;;;;5122410;27;20784;-68
2022/04/12 11:23:15;;;;;;;6.73;2.40;;;24.10;99.90;;;;;;5123512;27;20198;-68
2022/04/12 11:25:48;;;;;;;5.57;2.00;;;24.00;99.90;;;;;;5100303;27;20343;-67
2022/04/12 11:28:21;;;;;;;5.27;1.97;;;23.80;99.90;;;;;;5096229;28;20284;-67
2022/04/12 11:30:57;;;;;;;2.83;2.17;;;23.70;99.90;;;;;;5100313;27;20287;-68
2022/04/12 11:33:29;;;;;;;2.27;2.07;;;23.50;99.70;;;;;;5099569;28;20231;-68
2022/04/12 11:35:58;;;;;;;3.73;2.27;;;23.30;99.90;;;;;;5106041;28;20701;-67
2022/04/12 11:38:26;;;;;;;3.10;1.90;;;23.50;99.90;;;;;;5098698;27;20216;-67
2022/04/12 11:41:01;;;;;;;3.70;1.80;;;23.90;99.90;;;;;;5105185;27;20281;-68
2022/04/12 11:43:30;;;;;;;6.50;1.87;;;24.30;99.90;;;;;;5094930;28;20211;-67
2022/04/12 11:46:01;;;;;;;2.93;2.27;;;24.20;99.20;;;;;;5096491;28;20197;-67
2022/04/12 11:48:32;;;;;;;3.63;2.00;;;23.90;99.90;;;;;;5094920;27;20365;-67
2022/04/12 11:51:04;;;;;;;6.50;2.07;;;23.50;99.90;;;;;;5096246;28;20426;-67
2022/04/12 11:53:33;;;;;;;3.47;2.30;;;23.70;99.90;;;;;;5103280;28;20710;-67
2022/04/12 11:56:02;;;;;;;6.00;2.30;;;23.90;99.90;;;;;;5122668;27;20553;-67
2022/04/12 11:58:32;;;;;;;5.13;2.27;;;23.80;99.60;;;;;;5100846;27;20668;-67
2022/04/12 12:01:00;;;;;;;2.47;2.23;;;23.70;99.90;;;;;;5126061;27;20207;-67
2022/04/12 12:03:31;;;;;;;4.77;2.10;;;23.70;99.90;;;;;;5095360;28;20238;-67
2022/04/12 12:06:01;;;;;;;5.97;2.27;;;23.60;99.90;;;;;;5097827;28;20216;-67
2022/04/12 12:08:30;;;;;;;4.13;2.17;;;23.90;99.90;;;;;;5093772;28;20480;-67
2022/04/12 12:10:59;;;;;;;4.43;2.50;;;23.90;99.90;;;;;;5099901;28;20210;-67
2022/04/12 12:13:27;;;;;;;3.17;2.13;;;23.70;99.90;;;;;;5093082;28;20207;-67
2022/04/12 12:15:56;;;;;;;8.20;2.43;;;23.60;99.90;;;;;;5094949;28;20340;-67
2022/04/12 12:18:24;;;;;;;3.70;2.50;;;23.70;99.90;;;;;;5100522;28;20195;-67
2022/04/12 12:20:55;;;;;;;6.17;2.60;;;23.50;99.90;;;;;;5091865;27;20211;-67
2022/04/12 12:23:23;;;;;;;2.97;2.13;;;23.50;99.90;;;;;;5106846;28;20202;-67
2022/04/12 12:26:00;;;;;;;5.47;2.10;;;23.60;99.90;;;;;;5106951;27;20216;-67
2022/04/12 12:28:29;;;;;;;6.43;2.20;;;23.50;99.90;;;;;;5098279;28;20202;-67
2022/04/12 12:30:59;;;;;;;5.57;2.53;;;23.20;99.90;;;;;;5100809;27;20293;-66
2022/04/12 12:33:41;;;;;;;4.33;2.20;;;23.20;99.90;;;;;;5102604;28;20207;-67
2022/04/12 12:36:22;;;;;;;6.77;2.50;;;23.10;99.90;;;;;;5105146;27;20811;-67
2022/04/12 12:38:51;;;;;;;5.53;2.40;;;23.20;99.90;;;;;;5101302;28;20202;-67
2022/04/12 12:41:26;;;;;;;4.53;2.50;;;23.10;99.90;;;;;;5100263;28;20203;-67
2022/04/12 12:43:56;;;;;;;5.73;2.47;;;22.90;99.90;;;;;;5096075;27;20191;-67
2022/04/12 12:46:28;;;;;;;4.33;2.53;;;22.80;99.90;;;;;;5106198;27;20665;-67
2022/04/12 12:49:09;;;;;;;2.10;1.90;;;22.60;99.90;;;;;;5108915;28;20205;-67
2022/04/12 12:51:40;;;;;;;5.40;2.27;;;22.80;99.90;;;;;;5100012;27;20190;-67
2022/04/12 12:54:14;;;;;;;3.47;1.90;;;22.90;99.90;;;;;;5100421;27;20218;-67
2022/04/12 12:56:45;;;;;;;6.97;1.80;;;22.90;99.90;;;;;;5103873;27;20225;-68
2022/04/12 12:59:18;;;;;;;8.30;2.17;;;22.70;99.90;;;;;;5106612;27;20214;-67
2022/04/12 13:01:48;;;;;;;5.83;1.90;;;22.70;99.90;;;;;;5122538;27;20274;-67
2022/04/12 13:04:21;;;;;;;5.37;2.07;;;22.60;99.90;;;;;;5105318;27;20202;-67
2022/04/12 13:07:05;;;;;;;5.53;2.00;;;22.50;99.90;;;;;;5128592;27;20293;-67